sensor_id;sensor_type;location;lat;lon;timestamp;P1;durP1;ratioP1;P2;durP2;ratioP2
49384;SDS011;36795;45.028;38.968;2022-12-18T00:00:41;23.92;;;8.18;;
49384;SDS011;36795;45.028;38.968;2022-12-18T00:03:28;23.20;;;8.13;;
49384;SDS011;36795;45.028;38.968;2022-12-18T00:06:13;27.17;;;11.10;;
49384;SDS011;36795;45.028;38.968;2022-12-18T00:09:01;28.02;;;11.48;;
49384;SDS011;36795;45.028;38.968;2022-12-18T00:11:48;35.45;;;11.25;;
49384;SDS011;36795;45.028;38.968;2022-12-18T00:14:34;32.28;;;11.70;;
49384;SDS011;36795;45.028;38.968;2022-12-18T00:17:21;32.53;;;13.65;;
49384;SDS011;36795;45.028;38.968;2022-12-18T00:20:08;33.88;;;11.70;;
49384;SDS011;36795;45.028;38.968;2022-12-18T00:22:54;30.58;;;12.43;;
49384;SDS011;36795;45.028;38.968;2022-12-18T00:25:41;36.47;;;12.30;;
49384;SDS011;36795;45.028;38.968;2022-12-18T00:28:27;30.73;;;11.77;;
49384;SDS011;36795;45.028;38.968;2022-12-18T00:31:14;28.38;;;12.68;;
49384;SDS011;36795;45.028;38.968;2022-12-18T00:34:02;32.35;;;12.45;;
49384;SDS011;36795;45.028;38.968;2022-12-18T00:36:48;33.03;;;12.52;;
49384;SDS011;36795;45.028;38.968;2022-12-18T00:39:34;34.13;;;13.27;;
49384;SDS011;36795;45.028;38.968;2022-12-18T00:42:20;35.60;;;12.37;;
49384;SDS011;36795;45.028;38.968;2022-12-18T00:48:13;36.50;;;12.75;;
49384;SDS011;36795;45.028;38.968;2022-12-18T00:50:58;29.35;;;12.25;;
49384;SDS011;36795;45.028;38.968;2022-12-18T00:53:45;29.20;;;12.15;;
49384;SDS011;36795;45.028;38.968;2022-12-18T00:56:30;35.75;;;13.23;;
49384;SDS011;36795;45.028;38.968;2022-12-18T00:59:17;31.62;;;11.82;;
49384;SDS011;36795;45.028;38.968;2022-12-18T01:02:03;29.77;;;12.85;;
49384;SDS011;36795;45.028;38.968;2022-12-18T01:04:49;29.10;;;11.65;;
49384;SDS011;36795;45.028;38.968;2022-12-18T01:07:37;30.67;;;12.27;;
49384;SDS011;36795;45.028;38.968;2022-12-18T01:10:24;30.88;;;12.90;;
49384;SDS011;36795;45.028;38.968;2022-12-18T01:13:10;30.75;;;12.57;;
49384;SDS011;36795;45.028;38.968;2022-12-18T01:15:57;30.35;;;12.00;;
49384;SDS011;36795;45.028;38.968;2022-12-18T01:18:44;31.42;;;11.63;;
49384;SDS011;36795;45.028;38.968;2022-12-18T01:21:30;33.25;;;12.48;;
49384;SDS011;36795;45.028;38.968;2022-12-18T01:24:21;30.77;;;12.57;;
49384;SDS011;36795;45.028;38.968;2022-12-18T01:27:08;29.87;;;11.85;;
49384;SDS011;36795;45.028;38.968;2022-12-18T01:29:53;29.15;;;11.57;;
49384;SDS011;36795;45.028;38.968;2022-12-18T01:32:40;29.52;;;11.55;;
49384;SDS011;36795;45.028;38.968;2022-12-18T01:35:26;30.33;;;11.93;;
49384;SDS011;36795;45.028;38.968;2022-12-18T01:38:13;29.85;;;12.15;;
49384;SDS011;36795;45.028;38.968;2022-12-18T01:40:59;29.80;;;12.57;;
49384;SDS011;36795;45.028;38.968;2022-12-18T01:46:34;31.48;;;12.37;;
49384;SDS011;36795;45.028;38.968;2022-12-18T01:49:21;27.83;;;11.23;;
49384;SDS011;36795;45.028;38.968;2022-12-18T01:52:07;28.90;;;11.80;;
49384;SDS011;36795;45.028;38.968;2022-12-18T01:54:53;33.47;;;11.38;;
49384;SDS011;36795;45.028;38.968;2022-12-18T01:57:41;27.85;;;9.90;;
49384;SDS011;36795;45.028;38.968;2022-12-18T02:00:27;28.35;;;9.02;;
49384;SDS011;36795;45.028;38.968;2022-12-18T02:03:14;23.48;;;8.43;;
49384;SDS011;36795;45.028;38.968;2022-12-18T02:06:09;22.85;;;8.82;;
49384;SDS011;36795;45.028;38.968;2022-12-18T02:14:45;22.02;;;7.43;;
49384;SDS011;36795;45.028;38.968;2022-12-18T02:17:47;23.98;;;7.95;;
49384;SDS011;36795;45.028;38.968;2022-12-18T02:21:00;25.55;;;7.57;;
49384;SDS011;36795;45.028;38.968;2022-12-18T02:26:53;24.77;;;8.43;;
49384;SDS011;36795;45.028;38.968;2022-12-18T02:29:59;25.42;;;8.23;;
49384;SDS011;36795;45.028;38.968;2022-12-18T02:32:50;26.98;;;8.63;;
49384;SDS011;36795;45.028;38.968;2022-12-18T02:35:38;24.20;;;8.35;;
49384;SDS011;36795;45.028;38.968;2022-12-18T02:38:26;28.52;;;9.00;;
49384;SDS011;36795;45.028;38.968;2022-12-18T02:41:16;21.70;;;8.50;;
49384;SDS011;36795;45.028;38.968;2022-12-18T02:44:07;23.90;;;8.35;;
49384;SDS011;36795;45.028;38.968;2022-12-18T02:46:56;29.98;;;9.60;;
49384;SDS011;36795;45.028;38.968;2022-12-18T02:53:09;22.65;;;7.95;;
49384;SDS011;36795;45.028;38.968;2022-12-18T02:56:28;22.40;;;8.07;;
49384;SDS011;36795;45.028;38.968;2022-12-18T02:59:29;25.75;;;8.18;;
49384;SDS011;36795;45.028;38.968;2022-12-18T03:02:22;25.35;;;8.68;;
49384;SDS011;36795;45.028;38.968;2022-12-18T03:05:53;32.45;;;10.02;;
49384;SDS011;36795;45.028;38.968;2022-12-18T03:08:47;30.42;;;10.75;;
49384;SDS011;36795;45.028;38.968;2022-12-18T03:11:40;31.40;;;11.65;;
49384;SDS011;36795;45.028;38.968;2022-12-18T03:14:57;35.65;;;13.30;;
49384;SDS011;36795;45.028;38.968;2022-12-18T03:18:08;36.22;;;12.98;;
49384;SDS011;36795;45.028;38.968;2022-12-18T03:21:00;39.10;;;13.20;;
49384;SDS011;36795;45.028;38.968;2022-12-18T03:23:51;32.38;;;13.75;;
49384;SDS011;36795;45.028;38.968;2022-12-18T03:26:41;33.95;;;12.60;;
49384;SDS011;36795;45.028;38.968;2022-12-18T03:29:40;35.67;;;13.10;;
49384;SDS011;36795;45.028;38.968;2022-12-18T03:32:33;31.67;;;11.57;;
49384;SDS011;36795;45.028;38.968;2022-12-18T03:35:42;27.65;;;10.95;;
49384;SDS011;36795;45.028;38.968;2022-12-18T03:38:29;25.25;;;9.82;;
49384;SDS011;36795;45.028;38.968;2022-12-18T03:41:19;27.52;;;9.75;;
49384;SDS011;36795;45.028;38.968;2022-12-18T03:47:52;23.27;;;8.75;;
49384;SDS011;36795;45.028;38.968;2022-12-18T03:53:49;25.62;;;9.02;;
49384;SDS011;36795;45.028;38.968;2022-12-18T03:56:48;32.30;;;14.93;;
49384;SDS011;36795;45.028;38.968;2022-12-18T03:59:39;24.83;;;8.82;;
49384;SDS011;36795;45.028;38.968;2022-12-18T04:02:27;23.15;;;7.80;;
49384;SDS011;36795;45.028;38.968;2022-12-18T04:05:16;20.05;;;7.45;;
49384;SDS011;36795;45.028;38.968;2022-12-18T04:08:04;22.30;;;8.10;;
49384;SDS011;36795;45.028;38.968;2022-12-18T04:10:52;25.65;;;8.07;;
49384;SDS011;36795;45.028;38.968;2022-12-18T04:13:38;27.73;;;7.75;;
49384;SDS011;36795;45.028;38.968;2022-12-18T04:16:27;23.75;;;8.00;;
49384;SDS011;36795;45.028;38.968;2022-12-18T04:19:14;25.50;;;8.60;;
49384;SDS011;36795;45.028;38.968;2022-12-18T04:22:01;22.17;;;7.43;;
49384;SDS011;36795;45.028;38.968;2022-12-18T04:24:49;24.30;;;7.45;;
49384;SDS011;36795;45.028;38.968;2022-12-18T04:27:37;22.25;;;7.82;;
49384;SDS011;36795;45.028;38.968;2022-12-18T04:30:23;23.08;;;6.80;;
49384;SDS011;36795;45.028;38.968;2022-12-18T04:33:11;21.85;;;7.20;;
49384;SDS011;36795;45.028;38.968;2022-12-18T04:36:04;22.62;;;7.25;;
49384;SDS011;36795;45.028;38.968;2022-12-18T04:38:51;23.10;;;6.97;;
49384;SDS011;36795;45.028;38.968;2022-12-18T04:41:39;20.73;;;6.43;;
49384;SDS011;36795;45.028;38.968;2022-12-18T04:44:27;21.42;;;6.65;;
49384;SDS011;36795;45.028;38.968;2022-12-18T04:47:13;20.40;;;6.22;;
49384;SDS011;36795;45.028;38.968;2022-12-18T04:50:00;19.48;;;6.43;;
49384;SDS011;36795;45.028;38.968;2022-12-18T04:52:45;21.62;;;5.55;;
49384;SDS011;36795;45.028;38.968;2022-12-18T04:55:32;19.27;;;5.90;;
49384;SDS011;36795;45.028;38.968;2022-12-18T04:58:17;18.95;;;6.40;;
49384;SDS011;36795;45.028;38.968;2022-12-18T05:01:04;17.60;;;5.70;;
49384;SDS011;36795;45.028;38.968;2022-12-18T05:03:52;20.52;;;5.37;;
49384;SDS011;36795;45.028;38.968;2022-12-18T05:06:38;19.27;;;5.43;;
49384;SDS011;36795;45.028;38.968;2022-12-18T05:09:24;19.95;;;5.03;;
49384;SDS011;36795;45.028;38.968;2022-12-18T05:12:10;18.05;;;5.20;;
49384;SDS011;36795;45.028;38.968;2022-12-18T05:14:56;18.42;;;5.18;;
49384;SDS011;36795;45.028;38.968;2022-12-18T05:17:43;18.60;;;5.78;;
49384;SDS011;36795;45.028;38.968;2022-12-18T05:20:29;18.70;;;5.18;;
49384;SDS011;36795;45.028;38.968;2022-12-18T05:23:16;17.98;;;4.85;;
49384;SDS011;36795;45.028;38.968;2022-12-18T05:26:03;21.73;;;6.22;;
49384;SDS011;36795;45.028;38.968;2022-12-18T05:28:51;18.25;;;5.37;;
49384;SDS011;36795;45.028;38.968;2022-12-18T05:31:37;20.23;;;6.30;;
49384;SDS011;36795;45.028;38.968;2022-12-18T05:34:23;17.95;;;5.20;;
49384;SDS011;36795;45.028;38.968;2022-12-18T05:37:09;18.37;;;5.03;;
49384;SDS011;36795;45.028;38.968;2022-12-18T05:39:56;15.68;;;4.62;;
49384;SDS011;36795;45.028;38.968;2022-12-18T05:42:42;14.27;;;3.90;;
49384;SDS011;36795;45.028;38.968;2022-12-18T05:45:28;13.30;;;4.15;;
49384;SDS011;36795;45.028;38.968;2022-12-18T05:48:14;17.08;;;4.43;;
49384;SDS011;36795;45.028;38.968;2022-12-18T05:51:08;14.90;;;4.37;;
49384;SDS011;36795;45.028;38.968;2022-12-18T05:53:55;20.27;;;5.18;;
49384;SDS011;36795;45.028;38.968;2022-12-18T05:56:41;16.20;;;4.45;;
49384;SDS011;36795;45.028;38.968;2022-12-18T05:59:27;21.70;;;5.00;;
49384;SDS011;36795;45.028;38.968;2022-12-18T06:02:13;17.60;;;5.20;;
49384;SDS011;36795;45.028;38.968;2022-12-18T06:05:00;18.08;;;4.80;;
49384;SDS011;36795;45.028;38.968;2022-12-18T06:07:46;17.37;;;4.78;;
49384;SDS011;36795;45.028;38.968;2022-12-18T06:10:32;20.48;;;5.97;;
49384;SDS011;36795;45.028;38.968;2022-12-18T06:13:18;16.60;;;4.50;;
49384;SDS011;36795;45.028;38.968;2022-12-18T06:16:05;18.30;;;5.20;;
49384;SDS011;36795;45.028;38.968;2022-12-18T06:18:52;22.58;;;5.55;;
49384;SDS011;36795;45.028;38.968;2022-12-18T06:21:41;20.55;;;5.50;;
49384;SDS011;36795;45.028;38.968;2022-12-18T06:24:27;20.27;;;5.22;;
49384;SDS011;36795;45.028;38.968;2022-12-18T06:27:14;19.15;;;5.20;;
49384;SDS011;36795;45.028;38.968;2022-12-18T06:30:00;16.55;;;4.18;;
49384;SDS011;36795;45.028;38.968;2022-12-18T06:32:47;20.55;;;4.72;;
49384;SDS011;36795;45.028;38.968;2022-12-18T06:35:34;16.17;;;4.37;;
49384;SDS011;36795;45.028;38.968;2022-12-18T06:38:20;17.25;;;4.07;;
49384;SDS011;36795;45.028;38.968;2022-12-18T06:41:07;17.62;;;4.32;;
49384;SDS011;36795;45.028;38.968;2022-12-18T06:43:57;14.50;;;3.70;;
49384;SDS011;36795;45.028;38.968;2022-12-18T06:46:43;13.57;;;3.58;;
49384;SDS011;36795;45.028;38.968;2022-12-18T06:49:29;11.95;;;3.20;;
49384;SDS011;36795;45.028;38.968;2022-12-18T06:52:15;15.73;;;3.80;;
49384;SDS011;36795;45.028;38.968;2022-12-18T06:55:01;14.07;;;3.60;;
49384;SDS011;36795;45.028;38.968;2022-12-18T06:57:48;14.32;;;3.55;;
49384;SDS011;36795;45.028;38.968;2022-12-18T07:00:34;13.88;;;3.37;;
49384;SDS011;36795;45.028;38.968;2022-12-18T07:03:21;16.70;;;3.75;;
49384;SDS011;36795;45.028;38.968;2022-12-18T07:06:13;15.18;;;3.80;;
49384;SDS011;36795;45.028;38.968;2022-12-18T07:09:00;18.52;;;4.05;;
49384;SDS011;36795;45.028;38.968;2022-12-18T07:11:46;14.63;;;3.72;;
49384;SDS011;36795;45.028;38.968;2022-12-18T07:14:32;19.05;;;4.78;;
49384;SDS011;36795;45.028;38.968;2022-12-18T07:17:19;16.80;;;4.30;;
49384;SDS011;36795;45.028;38.968;2022-12-18T07:20:05;17.58;;;4.18;;
49384;SDS011;36795;45.028;38.968;2022-12-18T07:22:52;19.23;;;4.30;;
49384;SDS011;36795;45.028;38.968;2022-12-18T07:25:38;17.27;;;4.57;;
49384;SDS011;36795;45.028;38.968;2022-12-18T07:28:25;16.62;;;4.05;;
49384;SDS011;36795;45.028;38.968;2022-12-18T07:31:12;18.00;;;3.90;;
49384;SDS011;36795;45.028;38.968;2022-12-18T07:34:00;15.40;;;3.67;;
49384;SDS011;36795;45.028;38.968;2022-12-18T07:36:46;17.98;;;3.70;;
49384;SDS011;36795;45.028;38.968;2022-12-18T07:39:32;23.85;;;3.97;;
49384;SDS011;36795;45.028;38.968;2022-12-18T07:42:18;14.15;;;3.33;;
49384;SDS011;36795;45.028;38.968;2022-12-18T07:45:16;18.67;;;3.58;;
49384;SDS011;36795;45.028;38.968;2022-12-18T07:48:02;20.62;;;3.80;;
49384;SDS011;36795;45.028;38.968;2022-12-18T07:50:49;19.83;;;4.32;;
49384;SDS011;36795;45.028;38.968;2022-12-18T07:53:35;18.55;;;3.85;;
49384;SDS011;36795;45.028;38.968;2022-12-18T07:56:22;26.40;;;4.37;;
49384;SDS011;36795;45.028;38.968;2022-12-18T07:59:08;13.80;;;3.85;;
49384;SDS011;36795;45.028;38.968;2022-12-18T08:01:54;18.70;;;4.15;;
49384;SDS011;36795;45.028;38.968;2022-12-18T08:04:40;15.65;;;3.95;;
49384;SDS011;36795;45.028;38.968;2022-12-18T08:07:26;16.83;;;3.72;;
49384;SDS011;36795;45.028;38.968;2022-12-18T08:10:13;16.67;;;4.25;;
49384;SDS011;36795;45.028;38.968;2022-12-18T08:12:59;18.27;;;4.35;;
49384;SDS011;36795;45.028;38.968;2022-12-18T08:15:46;18.52;;;4.40;;
49384;SDS011;36795;45.028;38.968;2022-12-18T08:18:39;21.83;;;5.03;;
49384;SDS011;36795;45.028;38.968;2022-12-18T08:21:27;15.70;;;4.15;;
49384;SDS011;36795;45.028;38.968;2022-12-18T08:24:14;19.67;;;4.37;;
49384;SDS011;36795;45.028;38.968;2022-12-18T08:27:00;17.30;;;3.85;;
49384;SDS011;36795;45.028;38.968;2022-12-18T08:29:46;15.85;;;4.12;;
49384;SDS011;36795;45.028;38.968;2022-12-18T08:32:32;15.60;;;3.92;;
49384;SDS011;36795;45.028;38.968;2022-12-18T08:35:18;20.37;;;4.93;;
49384;SDS011;36795;45.028;38.968;2022-12-18T08:38:04;19.40;;;4.87;;
49384;SDS011;36795;45.028;38.968;2022-12-18T08:40:57;20.00;;;4.62;;
49384;SDS011;36795;45.028;38.968;2022-12-18T08:43:45;17.33;;;4.40;;
49384;SDS011;36795;45.028;38.968;2022-12-18T08:46:50;11.98;;;3.78;;
49384;SDS011;36795;45.028;38.968;2022-12-18T08:49:36;13.43;;;3.72;;
49384;SDS011;36795;45.028;38.968;2022-12-18T08:52:22;12.95;;;3.78;;
49384;SDS011;36795;45.028;38.968;2022-12-18T08:55:09;12.77;;;3.35;;
49384;SDS011;36795;45.028;38.968;2022-12-18T08:57:55;10.57;;;3.40;;
49384;SDS011;36795;45.028;38.968;2022-12-18T09:00:41;14.90;;;3.70;;
49384;SDS011;36795;45.028;38.968;2022-12-18T09:03:27;14.13;;;3.25;;
49384;SDS011;36795;45.028;38.968;2022-12-18T09:06:14;16.50;;;3.72;;
49384;SDS011;36795;45.028;38.968;2022-12-18T09:09:02;14.45;;;3.10;;
49384;SDS011;36795;45.028;38.968;2022-12-18T09:11:49;11.38;;;3.12;;
49384;SDS011;36795;45.028;38.968;2022-12-18T09:14:35;10.98;;;3.10;;
49384;SDS011;36795;45.028;38.968;2022-12-18T09:17:22;9.77;;;3.05;;
49384;SDS011;36795;45.028;38.968;2022-12-18T09:20:08;10.80;;;2.83;;
49384;SDS011;36795;45.028;38.968;2022-12-18T09:22:54;11.48;;;3.00;;
49384;SDS011;36795;45.028;38.968;2022-12-18T09:25:41;14.32;;;3.25;;
49384;SDS011;36795;45.028;38.968;2022-12-18T09:28:27;11.90;;;3.40;;
49384;SDS011;36795;45.028;38.968;2022-12-18T09:31:13;13.23;;;3.35;;
49384;SDS011;36795;45.028;38.968;2022-12-18T09:34:01;14.32;;;3.30;;
49384;SDS011;36795;45.028;38.968;2022-12-18T09:36:47;17.80;;;3.33;;
49384;SDS011;36795;45.028;38.968;2022-12-18T09:39:34;13.85;;;3.37;;
49384;SDS011;36795;45.028;38.968;2022-12-18T09:42:20;15.50;;;3.60;;
49384;SDS011;36795;45.028;38.968;2022-12-18T09:45:07;10.18;;;3.03;;
49384;SDS011;36795;45.028;38.968;2022-12-18T09:47:59;18.48;;;3.65;;
49384;SDS011;36795;45.028;38.968;2022-12-18T09:50:45;19.80;;;4.40;;
49384;SDS011;36795;45.028;38.968;2022-12-18T09:53:33;13.65;;;3.40;;
49384;SDS011;36795;45.028;38.968;2022-12-18T09:56:23;13.88;;;2.90;;
49384;SDS011;36795;45.028;38.968;2022-12-18T09:59:25;14.80;;;3.47;;
49384;SDS011;36795;45.028;38.968;2022-12-18T10:02:25;12.85;;;3.08;;
49384;SDS011;36795;45.028;38.968;2022-12-18T10:11:59;21.00;;;3.40;;
49384;SDS011;36795;45.028;38.968;2022-12-18T10:14:57;12.23;;;3.40;;
49384;SDS011;36795;45.028;38.968;2022-12-18T10:18:13;17.75;;;3.55;;
49384;SDS011;36795;45.028;38.968;2022-12-18T10:21:23;14.45;;;4.05;;
49384;SDS011;36795;45.028;38.968;2022-12-18T10:27:52;14.38;;;3.80;;
49384;SDS011;36795;45.028;38.968;2022-12-18T10:30:42;12.73;;;3.33;;
49384;SDS011;36795;45.028;38.968;2022-12-18T10:33:29;16.17;;;4.22;;
49384;SDS011;36795;45.028;38.968;2022-12-18T10:36:17;16.23;;;4.05;;
49384;SDS011;36795;45.028;38.968;2022-12-18T10:39:20;18.35;;;4.32;;
49384;SDS011;36795;45.028;38.968;2022-12-18T10:42:16;16.27;;;4.18;;
49384;SDS011;36795;45.028;38.968;2022-12-18T10:45:13;15.98;;;4.43;;
49384;SDS011;36795;45.028;38.968;2022-12-18T10:48:01;17.62;;;4.95;;
49384;SDS011;36795;45.028;38.968;2022-12-18T10:50:49;21.05;;;5.65;;
49384;SDS011;36795;45.028;38.968;2022-12-18T10:53:37;22.83;;;5.90;;
49384;SDS011;36795;45.028;38.968;2022-12-18T10:56:26;20.15;;;6.03;;
49384;SDS011;36795;45.028;38.968;2022-12-18T10:59:15;17.30;;;4.32;;
49384;SDS011;36795;45.028;38.968;2022-12-18T11:02:07;19.08;;;5.25;;
49384;SDS011;36795;45.028;38.968;2022-12-18T11:08:19;19.20;;;5.07;;
49384;SDS011;36795;45.028;38.968;2022-12-18T11:11:22;23.40;;;5.90;;
49384;SDS011;36795;45.028;38.968;2022-12-18T11:14:13;22.27;;;6.15;;
49384;SDS011;36795;45.028;38.968;2022-12-18T11:17:05;22.77;;;6.70;;
49384;SDS011;36795;45.028;38.968;2022-12-18T11:20:04;22.60;;;6.30;;
49384;SDS011;36795;45.028;38.968;2022-12-18T11:22:59;31.98;;;8.63;;
49384;SDS011;36795;45.028;38.968;2022-12-18T11:26:05;23.65;;;6.40;;
49384;SDS011;36795;45.028;38.968;2022-12-18T11:28:52;24.80;;;6.90;;
49384;SDS011;36795;45.028;38.968;2022-12-18T11:32:12;28.48;;;7.18;;
49384;SDS011;36795;45.028;38.968;2022-12-18T11:35:30;20.90;;;6.68;;
49384;SDS011;36795;45.028;38.968;2022-12-18T11:38:37;22.33;;;7.70;;
49384;SDS011;36795;45.028;38.968;2022-12-18T11:44:59;27.40;;;11.12;;
49384;SDS011;36795;45.028;38.968;2022-12-18T11:48:01;25.17;;;9.90;;
49384;SDS011;36795;45.028;38.968;2022-12-18T11:50:57;26.95;;;8.52;;
49384;SDS011;36795;45.028;38.968;2022-12-18T11:53:45;24.40;;;9.05;;
49384;SDS011;36795;45.028;38.968;2022-12-18T11:56:39;28.75;;;10.10;;
49384;SDS011;36795;45.028;38.968;2022-12-18T12:03:07;27.08;;;10.40;;
49384;SDS011;36795;45.028;38.968;2022-12-18T12:06:06;24.75;;;10.00;;
49384;SDS011;36795;45.028;38.968;2022-12-18T12:09:02;27.90;;;10.65;;
49384;SDS011;36795;45.028;38.968;2022-12-18T12:12:20;28.15;;;10.18;;
49384;SDS011;36795;45.028;38.968;2022-12-18T12:15:23;26.00;;;10.05;;
49384;SDS011;36795;45.028;38.968;2022-12-18T12:18:34;27.80;;;11.48;;
49384;SDS011;36795;45.028;38.968;2022-12-18T12:21:33;33.35;;;13.88;;
49384;SDS011;36795;45.028;38.968;2022-12-18T12:27:18;39.67;;;16.23;;
49384;SDS011;36795;45.028;38.968;2022-12-18T12:36:21;42.28;;;17.87;;
49384;SDS011;36795;45.028;38.968;2022-12-18T12:39:34;39.63;;;16.25;;
49384;SDS011;36795;45.028;38.968;2022-12-18T12:45:37;36.55;;;17.67;;
49384;SDS011;36795;45.028;38.968;2022-12-18T12:48:41;36.92;;;15.48;;
49384;SDS011;36795;45.028;38.968;2022-12-18T12:51:37;43.75;;;16.37;;
49384;SDS011;36795;45.028;38.968;2022-12-18T12:54:26;37.53;;;16.83;;
49384;SDS011;36795;45.028;38.968;2022-12-18T12:57:19;37.60;;;16.55;;
49384;SDS011;36795;45.028;38.968;2022-12-18T13:00:16;36.20;;;17.70;;
49384;SDS011;36795;45.028;38.968;2022-12-18T13:09:25;35.53;;;17.62;;
49384;SDS011;36795;45.028;38.968;2022-12-18T13:12:17;34.08;;;17.42;;
49384;SDS011;36795;45.028;38.968;2022-12-18T13:18:31;34.58;;;17.33;;
49384;SDS011;36795;45.028;38.968;2022-12-18T13:21:21;36.28;;;15.77;;
49384;SDS011;36795;45.028;38.968;2022-12-18T13:24:22;32.45;;;15.65;;
49384;SDS011;36795;45.028;38.968;2022-12-18T13:36:13;35.00;;;18.80;;
49384;SDS011;36795;45.028;38.968;2022-12-18T13:44:50;29.17;;;12.90;;
49384;SDS011;36795;45.028;38.968;2022-12-18T13:47:36;28.58;;;12.02;;
49384;SDS011;36795;45.028;38.968;2022-12-18T13:50:23;31.15;;;12.30;;
49384;SDS011;36795;45.028;38.968;2022-12-18T13:53:26;30.42;;;12.63;;
49384;SDS011;36795;45.028;38.968;2022-12-18T13:56:18;31.27;;;13.80;;
49384;SDS011;36795;45.028;38.968;2022-12-18T13:59:18;37.60;;;14.07;;
49384;SDS011;36795;45.028;38.968;2022-12-18T14:02:14;35.95;;;15.02;;
49384;SDS011;36795;45.028;38.968;2022-12-18T14:05:02;36.67;;;16.62;;
49384;SDS011;36795;45.028;38.968;2022-12-18T14:07:48;37.53;;;15.93;;
49384;SDS011;36795;45.028;38.968;2022-12-18T14:10:35;37.42;;;16.05;;
49384;SDS011;36795;45.028;38.968;2022-12-18T14:13:27;38.90;;;16.48;;
49384;SDS011;36795;45.028;38.968;2022-12-18T14:16:16;37.25;;;17.20;;
49384;SDS011;36795;45.028;38.968;2022-12-18T14:19:02;35.78;;;15.50;;
49384;SDS011;36795;45.028;38.968;2022-12-18T14:21:49;34.40;;;14.05;;
49384;SDS011;36795;45.028;38.968;2022-12-18T14:24:35;35.03;;;16.33;;
49384;SDS011;36795;45.028;38.968;2022-12-18T14:27:23;32.80;;;14.63;;
49384;SDS011;36795;45.028;38.968;2022-12-18T14:36:03;33.63;;;13.02;;
49384;SDS011;36795;45.028;38.968;2022-12-18T14:38:52;31.48;;;12.32;;
49384;SDS011;36795;45.028;38.968;2022-12-18T14:41:40;27.87;;;11.05;;
49384;SDS011;36795;45.028;38.968;2022-12-18T14:44:26;31.92;;;12.02;;
49384;SDS011;36795;45.028;38.968;2022-12-18T14:47:15;31.60;;;13.00;;
49384;SDS011;36795;45.028;38.968;2022-12-18T14:50:02;33.95;;;12.88;;
49384;SDS011;36795;45.028;38.968;2022-12-18T14:52:48;33.30;;;13.10;;
49384;SDS011;36795;45.028;38.968;2022-12-18T14:55:35;30.85;;;12.15;;
49384;SDS011;36795;45.028;38.968;2022-12-18T14:58:21;35.65;;;14.63;;
49384;SDS011;36795;45.028;38.968;2022-12-18T15:01:08;27.25;;;10.30;;
49384;SDS011;36795;45.028;38.968;2022-12-18T15:04:04;29.12;;;10.80;;
49384;SDS011;36795;45.028;38.968;2022-12-18T15:07:16;28.65;;;10.48;;
49384;SDS011;36795;45.028;38.968;2022-12-18T15:15:44;31.00;;;10.73;;
49384;SDS011;36795;45.028;38.968;2022-12-18T15:18:32;27.40;;;10.40;;
49384;SDS011;36795;45.028;38.968;2022-12-18T15:21:27;27.87;;;9.77;;
49384;SDS011;36795;45.028;38.968;2022-12-18T15:24:24;27.15;;;9.48;;
49384;SDS011;36795;45.028;38.968;2022-12-18T15:27:31;25.25;;;9.95;;
49384;SDS011;36795;45.028;38.968;2022-12-18T15:30:26;28.55;;;10.05;;
49384;SDS011;36795;45.028;38.968;2022-12-18T15:33:25;30.23;;;11.57;;
49384;SDS011;36795;45.028;38.968;2022-12-18T15:36:16;29.33;;;10.10;;
49384;SDS011;36795;45.028;38.968;2022-12-18T15:39:02;31.60;;;11.27;;
49384;SDS011;36795;45.028;38.968;2022-12-18T15:41:49;34.65;;;10.57;;
49384;SDS011;36795;45.028;38.968;2022-12-18T15:44:53;30.42;;;11.02;;
49384;SDS011;36795;45.028;38.968;2022-12-18T15:47:40;26.65;;;10.45;;
49384;SDS011;36795;45.028;38.968;2022-12-18T15:50:28;27.77;;;9.45;;
49384;SDS011;36795;45.028;38.968;2022-12-18T15:53:14;27.02;;;9.32;;
49384;SDS011;36795;45.028;38.968;2022-12-18T15:56:00;24.08;;;8.93;;
49384;SDS011;36795;45.028;38.968;2022-12-18T15:59:12;23.85;;;8.75;;
49384;SDS011;36795;45.028;38.968;2022-12-18T16:02:00;26.52;;;9.77;;
49384;SDS011;36795;45.028;38.968;2022-12-18T16:04:46;25.48;;;10.10;;
49384;SDS011;36795;45.028;38.968;2022-12-18T16:07:32;27.70;;;11.57;;
49384;SDS011;36795;45.028;38.968;2022-12-18T16:10:18;29.02;;;11.95;;
49384;SDS011;36795;45.028;38.968;2022-12-18T16:13:04;33.70;;;12.70;;
49384;SDS011;36795;45.028;38.968;2022-12-18T16:15:55;29.17;;;12.52;;
49384;SDS011;36795;45.028;38.968;2022-12-18T16:18:42;29.35;;;11.55;;
49384;SDS011;36795;45.028;38.968;2022-12-18T16:21:28;30.08;;;12.43;;
49384;SDS011;36795;45.028;38.968;2022-12-18T16:24:17;32.00;;;13.20;;
49384;SDS011;36795;45.028;38.968;2022-12-18T16:27:07;30.70;;;13.93;;
49384;SDS011;36795;45.028;38.968;2022-12-18T16:29:53;31.25;;;13.55;;
49384;SDS011;36795;45.028;38.968;2022-12-18T16:32:39;30.00;;;12.70;;
49384;SDS011;36795;45.028;38.968;2022-12-18T16:35:25;30.88;;;14.15;;
49384;SDS011;36795;45.028;38.968;2022-12-18T16:38:13;30.75;;;14.20;;
49384;SDS011;36795;45.028;38.968;2022-12-18T16:40:58;32.55;;;13.40;;
49384;SDS011;36795;45.028;38.968;2022-12-18T16:44:03;28.60;;;14.18;;
49384;SDS011;36795;45.028;38.968;2022-12-18T16:46:49;32.13;;;13.23;;
49384;SDS011;36795;45.028;38.968;2022-12-18T16:49:35;30.70;;;14.25;;
49384;SDS011;36795;45.028;38.968;2022-12-18T16:52:21;28.10;;;14.50;;
49384;SDS011;36795;45.028;38.968;2022-12-18T16:55:08;27.75;;;14.07;;
49384;SDS011;36795;45.028;38.968;2022-12-18T16:57:54;28.75;;;14.00;;
49384;SDS011;36795;45.028;38.968;2022-12-18T17:00:40;27.37;;;13.10;;
49384;SDS011;36795;45.028;38.968;2022-12-18T17:03:26;27.02;;;12.35;;
49384;SDS011;36795;45.028;38.968;2022-12-18T17:06:12;27.55;;;12.60;;
49384;SDS011;36795;45.028;38.968;2022-12-18T17:08:59;27.27;;;12.80;;
49384;SDS011;36795;45.028;38.968;2022-12-18T17:11:51;26.98;;;12.50;;
49384;SDS011;36795;45.028;38.968;2022-12-18T17:14:37;27.13;;;11.75;;
49384;SDS011;36795;45.028;38.968;2022-12-18T17:17:24;26.80;;;11.77;;
49384;SDS011;36795;45.028;38.968;2022-12-18T17:20:11;30.02;;;11.43;;
49384;SDS011;36795;45.028;38.968;2022-12-18T17:22:57;29.92;;;13.27;;
49384;SDS011;36795;45.028;38.968;2022-12-18T17:25:43;28.85;;;13.25;;
49384;SDS011;36795;45.028;38.968;2022-12-18T17:28:30;26.92;;;11.93;;
49384;SDS011;36795;45.028;38.968;2022-12-18T17:31:19;28.90;;;13.85;;
49384;SDS011;36795;45.028;38.968;2022-12-18T17:34:07;26.40;;;10.80;;
49384;SDS011;36795;45.028;38.968;2022-12-18T17:36:55;26.37;;;11.73;;
49384;SDS011;36795;45.028;38.968;2022-12-18T17:39:41;27.77;;;11.50;;
49384;SDS011;36795;45.028;38.968;2022-12-18T17:42:27;24.98;;;11.65;;
49384;SDS011;36795;45.028;38.968;2022-12-18T17:45:14;23.87;;;10.07;;
49384;SDS011;36795;45.028;38.968;2022-12-18T17:48:00;24.50;;;10.40;;
49384;SDS011;36795;45.028;38.968;2022-12-18T17:50:46;27.40;;;11.57;;
49384;SDS011;36795;45.028;38.968;2022-12-18T17:53:32;24.05;;;10.07;;
49384;SDS011;36795;45.028;38.968;2022-12-18T17:56:19;24.65;;;10.23;;
49384;SDS011;36795;45.028;38.968;2022-12-18T17:59:07;23.83;;;9.98;;
49384;SDS011;36795;45.028;38.968;2022-12-18T18:01:53;24.85;;;9.80;;